Flight Track Log - Related Links

Times and Time Zones

All times are in EDT time to prevent confusion due to time zone crossing. See the SWA1688 flight status page for this flight to view local times or setup timezone preferences in your user account.

Time Position Orientation Groundspeed Altitude Reporting Facility
EDT Latitude Longitude Course Direction KTS MPH feet Rate Location/Type
Wed 09:40:31 PM 28.4167 -81.3000 156° South 150 173 900  Level Orlando TRACON
Wed 09:41:13 PM 28.3833 -81.2833 156° South 182 209 2,900 2,471 Climbing Orlando TRACON
Wed 09:42:13 PM 28.3333 -81.2500 150° Southeast 205 236 5,100 2,792 Climbing Orlando TRACON
Wed 09:43:52 PM 28.3642 -81.2058 52° Northeast 176 203 10,300 3,418 Climbing Jacksonville Center
Wed 09:44:51 PM 28.4417 -81.2283 346° North 198 228 14,100 3,681 Climbing Jacksonville Center
Wed 09:45:51 PM 28.5297 -81.2503 348° North 263 303 17,600 3,050 Climbing Jacksonville Center
Wed 09:46:51 PM 28.6261 -81.2747 347° North 315 362 20,200 2,727 Climbing Jacksonville Center
Wed 09:47:52 PM 28.7328 -81.3039 347° North 358 412 23,100 2,926 Climbing Jacksonville Center
Wed 09:48:52 PM 28.8417 -81.3258 350° North 383 441 26,100 2,800 Climbing Jacksonville Center
Wed 09:49:52 PM 28.9525 -81.3550 347° North 397 457 28,700 2,500 Climbing Jacksonville Center
Wed 09:50:52 PM 29.0656 -81.3842 347° North 408 470 31,100 2,420 Climbing Jacksonville Center
Wed 09:51:51 PM 29.1825 -81.3967 355° North 413 475 33,500 2,218 Climbing Jacksonville Center
Wed 09:52:51 PM 29.2997 -81.4114 354° North 413 475 35,500 1,884 Climbing Jacksonville Center
Wed 09:53:52 PM 29.4147 -81.4217 356° North 413 475 37,300 1,800 Climbing Jacksonville Center
Wed 09:54:51 PM 29.5275 -81.4342 354° North 413 475 39,100 1,664 Climbing Jacksonville Center
Wed 09:55:51 PM 29.6444 -81.4444 356° North 413 475 40,600 942 Climbing Jacksonville Center
Wed 09:56:52 PM 29.7594 -81.4547 356° North 413 475 41,000 198 Climbing Jacksonville Center
Wed 09:57:52 PM 29.8744 -81.4650 356° North 408 470 41,000  Level Jacksonville Center
Wed 09:58:52 PM 29.9872 -81.4753 355° North 408 470 41,000  Level Jacksonville Center
Wed 09:59:52 PM 30.1022 -81.4856 356° North 408 470 41,000  Level Jacksonville Center
Wed 10:00:52 PM 30.2150 -81.4958 355° North 408 470 41,000  Level Jacksonville Center
Wed 10:01:52 PM 30.3319 -81.5086 355° North 408 470 41,000  Level Jacksonville Center
Wed 10:02:51 PM 30.4489 -81.5022 North 408 470 41,000  Level Jacksonville Center
Wed 10:03:51 PM 30.5658 -81.4933 North 408 470 41,000  Level Jacksonville Center
Wed 10:04:51 PM 30.6806 -81.4844 North 408 470 41,000  Level Jacksonville Center
Wed 10:05:52 PM 30.7869 -81.4756 North 414 476 41,000  Level Jacksonville Center
Wed 10:06:51 PM 30.9014 -81.4447 13° North 419 482 41,000  Level Jacksonville Center
Wed 10:07:51 PM 31.0156 -81.3897 22° Northeast 424 488 41,000  Level Jacksonville Center
Wed 10:08:51 PM 31.1233 -81.3297 25° Northeast 424 488 41,000  Level Jacksonville Center
Wed 10:09:51 PM 31.2356 -81.2744 23° Northeast 424 488 41,000  Level Jacksonville Center
Wed 10:10:52 PM 31.3433 -81.2167 25° Northeast 424 488 41,000  Level Jacksonville Center
Wed 10:11:52 PM 31.4636 -81.1511 25° Northeast 424 488 41,000  Level Jacksonville Center
Wed 10:12:52 PM 31.5714 -81.0956 24° Northeast 430 495 41,000  Level Jacksonville Center
Wed 10:13:52 PM 31.6686 -81.0422 25° Northeast 419 482 41,000  Level Jacksonville Center
Wed 10:14:51 PM 31.7889 -80.9811 23° Northeast 419 482 41,000  Level Jacksonville Center
Wed 10:15:51 PM 31.8883 -80.9303 23° Northeast 419 482 41,000  Level Jacksonville Center
Wed 10:16:52 PM 32.0106 -80.8664 24° Northeast 419 482 41,000  Level Jacksonville Center
Wed 10:17:51 PM 32.1222 -80.8075 24° Northeast 424 488 41,000  Level Jacksonville Center
Wed 10:18:51 PM 32.2217 -80.7561 24° Northeast 432 497 41,000  Level Jacksonville Center
Wed 10:19:52 PM 32.3311 -80.6969 25° Northeast 432 497 41,000  Level Jacksonville Center
Wed 10:20:51 PM 32.4428 -80.6353 25° Northeast 432 497 41,000  Level Jacksonville Center
Wed 10:21:52 PM 32.5544 -80.5783 23° Northeast 432 497 41,000  Level Jacksonville Center
Wed 10:22:52 PM 32.6642 -80.5161 26° Northeast 432 497 41,000  Level Jacksonville Center
Wed 10:23:51 PM 32.7756 -80.4589 23° Northeast 432 497 41,000  Level Jacksonville Center
Wed 10:24:51 PM 32.8850 -80.3992 25° Northeast 432 497 41,000  Level Jacksonville Center
Wed 10:25:51 PM 33.0069 -80.3314 25° Northeast 436 502 41,000  Level Jacksonville Center
Wed 10:26:51 PM 33.1225 -80.2733 23° Northeast 436 502 41,000  Level Jacksonville Center
Wed 10:27:51 PM 33.2364 -80.2181 22° Northeast 436 502 41,000  Level Jacksonville Center
Wed 10:28:51 PM 33.3436 -80.1600 24° Northeast 430 495 41,000  Level Jacksonville Center
Wed 10:29:51 PM 33.4528 -80.0994 25° Northeast 430 495 41,000  Level Jacksonville Center
Wed 10:30:51 PM 33.5683 -80.0408 23° Northeast 430 495 41,000  Level Jacksonville Center
Wed 10:31:52 PM 33.6797 -79.9825 24° Northeast 430 495 41,000  Level Jacksonville Center
Wed 10:32:51 PM 33.7931 -79.9211 24° Northeast 435 501 41,000  Level Jacksonville Center
Wed 10:33:51 PM 33.9042 -79.8600 25° Northeast 435 501 41,000  Level Jacksonville Center
Wed 10:34:52 PM 34.0156 -79.8033 23° Northeast 435 501 41,000  Level Jacksonville Center
Wed 10:35:52 PM 34.1267 -79.7392 26° Northeast 435 501 41,000  Level Jacksonville Center
Wed 10:37:59 PM 34.3542 -79.6219 23° Northeast 449 517 41,000  Level Washington Center
Wed 10:38:59 PM 34.4650 -79.5592 25° Northeast 444 511 41,000  Level Washington Center
Wed 10:39:59 PM 34.5753 -79.5017 23° Northeast 434 499 41,000  Level Washington Center
Wed 10:40:57 PM 34.6878 -79.4389 25° Northeast 434 499 41,000  Level Washington Center
Wed 10:41:58 PM 34.7983 -79.3783 24° Northeast 434 499 41,000  Level Washington Center
Wed 10:42:58 PM 34.9131 -79.3153 24° Northeast 434 499 41,000  Level Washington Center
Wed 10:43:56 PM 35.0275 -79.2544 24° Northeast 439 505 41,000  Level Washington Center
Wed 10:44:57 PM 35.1419 -79.1936 23° Northeast 439 505 41,000  Level Washington Center
Wed 10:45:58 PM 35.2417 -79.1397 24° Northeast 439 505 41,000  Level Washington Center
Wed 10:46:57 PM 35.3478 -79.0781 25° Northeast 455 524 41,000  Level Washington Center
Wed 10:47:59 PM 35.4667 -79.0144 24° Northeast 443 510 41,000  Level Washington Center
Wed 10:48:57 PM 35.5789 -78.9528 24° Northeast 438 504 41,000  Level Washington Center
Wed 10:49:57 PM 35.6892 -78.8936 24° Northeast 438 504 41,000  Level Washington Center
Wed 10:50:57 PM 35.8014 -78.8292 25° Northeast 438 504 41,000  Level Washington Center
Wed 10:51:58 PM 35.9075 -78.7592 28° Northeast 432 497 41,000  Level Washington Center
Wed 10:52:59 PM 36.0103 -78.6683 36° Northeast 437 503 41,000  Level Washington Center
Wed 10:53:57 PM 36.1083 -78.5819 35° Northeast 442 509 41,000  Level Washington Center
Wed 10:54:58 PM 36.2086 -78.4881 37° Northeast 442 509 41,000  Level Washington Center
Wed 10:55:57 PM 36.3069 -78.3964 37° Northeast 442 509 41,000  Level Washington Center
Wed 10:56:57 PM 36.4050 -78.3042 37° Northeast 442 509 41,000  Level Washington Center
Wed 10:57:58 PM 36.5031 -78.2122 37° Northeast 442 509 41,000  Level Washington Center
Wed 10:58:57 PM 36.6094 -78.1097 38° Northeast 442 509 41,000  Level Washington Center
Wed 10:59:57 PM 36.7075 -78.0169 37° Northeast 442 509 41,000  Level Washington Center
Wed 11:00:58 PM 36.8053 -77.9239 37° Northeast 442 509 41,000  Level Washington Center
Wed 11:01:59 PM 36.8944 -77.8358 38° Northeast 442 509 41,000  Level Washington Center
Wed 11:02:59 PM 36.9922 -77.7450 37° Northeast 447 514 41,000  Level Washington Center
Wed 11:03:57 PM 37.0919 -77.6489 38° Northeast 442 509 41,000  Level Washington Center
Wed 11:05:00 PM 37.1894 -77.5550 37° Northeast 442 509 41,000  Level Washington Center
Wed 11:05:58 PM 37.2889 -77.4608 37° Northeast 442 509 41,000  Level Washington Center
Wed 11:06:59 PM 37.3883 -77.3639 38° Northeast 442 509 41,000  Level Washington Center
Wed 11:07:57 PM 37.4983 -77.2592 37° Northeast 442 509 41,000  Level Washington Center
Wed 11:08:58 PM 37.6000 -77.1619 37° Northeast 442 509 41,000  Level Washington Center
Wed 11:09:57 PM 37.6969 -77.0642 39° Northeast 447 514 41,000  Level Washington Center
Wed 11:10:57 PM 37.7961 -76.9661 38° Northeast 447 514 41,000  Level Washington Center
Wed 11:11:59 PM 37.8953 -76.8681 38° Northeast 447 514 41,000  Level Washington Center
Wed 11:12:57 PM 37.9964 -76.7694 38° Northeast 447 514 41,000  Level Washington Center
Wed 11:13:57 PM 38.0953 -76.6708 38° Northeast 452 520 41,000  Level Washington Center
Wed 11:14:58 PM 38.1922 -76.5744 38° Northeast 452 520 41,000  Level Washington Center
Wed 11:15:58 PM 38.2908 -76.4728 39° Northeast 452 520 41,000  Level Washington Center
Wed 11:16:57 PM 38.3894 -76.3758 38° Northeast 446 513 41,000  Level Washington Center
Wed 11:17:58 PM 38.4861 -76.2761 39° Northeast 446 513 41,000  Level Washington Center
Wed 11:18:59 PM 38.5847 -76.1786 38° Northeast 446 513 41,000  Level Washington Center
Wed 11:19:57 PM 38.6872 -76.0783 37° Northeast 456 525 41,000  Level Washington Center
Wed 11:20:59 PM 38.7856 -75.9778 39° Northeast 456 525 41,000  Level Washington Center
Wed 11:21:57 PM 38.8858 -75.8769 38° Northeast 450 518 41,000  Level Washington Center
Wed 11:22:58 PM 38.9819 -75.7786 38° Northeast 445 512 41,000  Level Washington Center
Wed 11:23:59 PM 39.0758 -75.6800 39° Northeast 445 512 41,000  Level Washington Center
Wed 11:24:56 PM 39.1739 -75.5836 37° Northeast 440 506 41,000  Level Washington Center
Wed 11:26:01 PM 39.2697 -75.4817 39° Northeast 440 506 41,000  Level Washington Center
Wed 11:26:59 PM 39.3653 -75.3822 39° Northeast 440 506 41,000  Level Washington Center
Wed 11:27:58 PM 39.4611 -75.2825 39° Northeast 440 506 41,000  Level Washington Center
Wed 11:28:59 PM 39.5586 -75.1825 38° Northeast 440 506 41,000  Level Washington Center
Wed 11:30:54 PM 39.7358 -74.9903 40° Northeast 452 520 41,000  Level New York Center
Wed 11:31:55 PM 39.8542 -74.8864 34° Northeast 455 524 41,000  Level New York Center
Wed 11:32:54 PM 39.9494 -74.8433 19° North 434 499 41,000  Level New York Center
Wed 11:33:53 PM 40.0697 -74.8042 14° North 434 499 41,000  Level New York Center
Wed 11:34:53 PM 40.1839 -74.7511 20° North 434 499 41,000  Level New York Center
Wed 11:35:55 PM 40.3067 -74.6956 19° North 428 493 41,000  Level New York Center
Wed 11:36:56 PM 40.4208 -74.6450 19° North 428 493 41,000  Level New York Center
Wed 11:37:53 PM 40.5372 -74.5942 18° North 428 493 41,000 -425 Level New York Center
Wed 11:40:56 PM 40.8772 -74.4797 14° North 436 502 39,300 -1,136 Descending Boston Center
Wed 11:41:56 PM 41.0031 -74.4422 13° North 411 473 36,400 -2,900 Descending Boston Center
Wed 11:42:56 PM 41.1181 -74.4075 13° North 418 481 33,500 -2,050 Descending Boston Center
Wed 11:43:56 PM 41.2272 -74.3775 12° North 424 488 32,300 -2,250 Descending Boston Center
Wed 11:44:56 PM 41.3633 -74.3319 14° North 447 514 29,000 -2,850 Descending Boston Center
Wed 11:45:56 PM 41.4828 -74.2856 16° North 452 520 26,600 -2,050 Descending Boston Center
Wed 11:46:56 PM 41.5939 -74.2472 14° North 452 520 24,900 -2,250 Descending Boston Center
Wed 11:47:56 PM 41.7114 -74.2031 16° North 447 514 22,100 -3,050 Descending Boston Center
Wed 11:48:56 PM 41.8267 -74.1589 16° North 432 497 18,800 -3,050 Descending Boston Center
Wed 11:49:56 PM 41.9231 -74.1225 16° North 396 456 16,000 -2,885 Descending Boston Center
Wed 11:50:40 PM 42.0008 -74.0911 17° North 359 413 13,800 -2,800 Descending Boston Center
Wed 11:50:56 PM 42.0175 -74.0861 13° North 364 419 13,200 -2,727 Descending Boston Center
Wed 11:51:35 PM 42.0886 -74.0600 15° North 344 396 11,300 -2,200 Descending Boston Center
Wed 11:51:56 PM 42.1222 -74.0467 16° North 352 405 11,000 -295 Descending Boston Center
Wed 11:52:36 PM 42.1808 -74.0231 17° North 346 398 11,000 -200 Level Boston Center
Wed 11:52:56 PM 42.2125 -74.0069 21° North 347 399 10,800 -800 Descending Boston Center
Wed 11:53:36 PM 42.2647 -73.9831 19° North 312 359 10,200 -900 Descending Boston Center
Wed 11:53:56 PM 42.2922 -73.9697 20° North 309 356 9,900 -1,574 Descending Boston Center
Wed 11:54:37 PM 42.3444 -73.9486 17° North 272 313 8,600 -1,800 Descending Boston Center
Wed 11:54:56 PM 42.3633 -73.9350 28° Northeast 287 330 8,100 -2,222 Descending Boston Center
Wed 11:55:31 PM 42.4053 -73.9192 16° North 269 310 6,600 -2,600 Descending Boston Center
Wed 11:55:56 PM 42.4369 -73.9031 21° North 275 316 5,500 -2,066 Descending Boston Center
Wed 11:56:32 PM 42.4767 -73.8869 17° North 272 313 4,500 -1,400 Descending Boston Center
Wed 11:56:56 PM 42.5019 -73.8733 22° Northeast 269 310 4,100 -492 Descending Boston Center
Wed 11:57:33 PM 42.5500 -73.8519 18° North 253 291 4,000 -500 Descending Boston Center
Wed 11:57:56 PM 42.5711 -73.8411 21° North 251 289 3,600 -1,100 Descending Boston Center
Wed 11:58:33 PM 42.6108 -73.8253 16° North 231 266 2,900 -1,000 Descending Boston Center
Wed 11:58:56 PM 42.6233 -73.8169 26° Northeast 240 276 2,600 -1,082 Descending Boston Center
Wed 11:59:34 PM 42.6589 -73.8036 15° North 173 199 1,800 -500 Descending Boston Center
Wed 11:59:56 PM 42.6883 -73.7903 18° North 225 259 2,100 -700 Climbing Boston Center
Thu 12:00:34 AM 42.6964 -73.8044 308° West 129 148 1,100 -1,579 Descending Boston Center

Login

Don't have an account? Register now (free) for customized features, flight alerts, and more!